Novokuznetsk, Russia
Current Conditions -  °F | °C
As of 5:30 AM on Saturday 20 Dec 2014 (Local Time) from UNEE Reporting Station
Haze Haze  
Wind Chill: -6°   Ceiling: Unl
Heat Index:   Visibility: 1.5mi
Dew Point:   Wind: 4mph
Humidity: 100%   Direction: 160°SSE
Pressure: 30.53"   Gusts: NA
Location:  53.75°N, 87.1°E
Report Text: UNEE 192230Z 16002MPS 2400 BR SKC M16/M16 Q1034 TEMPO 0400 FZFGRMK QFE752 23821045
Loading
Personal Weather Stations






























Interactive Weather Map New forecast layout! Learn more

10-Day Weather Forecast

Advertisements
Track Severe Weather on mobile